Time;durP1;ratioP1;P1;durP2;ratioP2;P2;SDS_P1;SDS_P2;PMS_P1;PMS_P2;Temp;Humidity;BMP_temperature;BMP_pressure;BME280_temperature;BME280_humidity;BME280_pressure;Samples;Min_cycle;Max_cycle;Signal;HPM_P1;HPM_P2
2022/04/24 00:00:55;;;;;;;;;;;11.90;99.90;;;;;;5103777;28;19928;-57
2022/04/24 00:03:22;;;;;;;;;;;11.90;99.90;;;;;;5096305;28;19924;-57
2022/04/24 00:05:49;;;;;;;;;;;12.00;99.90;;;;;;5091022;28;19928;-57
2022/04/24 00:08:17;;;;;;;;;;;12.20;99.90;;;;;;5106054;28;20015;-57
2022/04/24 00:10:45;;;;;;;;;;;12.30;99.90;;;;;;5091332;28;19924;-57
2022/04/24 00:13:12;;;;;;;;;;;12.50;99.90;;;;;;5100597;28;20008;-57
2022/04/24 00:15:39;;;;;;;;;;;12.70;99.90;;;;;;5094286;28;20014;-57
2022/04/24 00:18:06;;;;;;;;;;;12.80;99.90;;;;;;5103140;28;19924;-57
2022/04/24 00:20:33;;;;;;;;;;;12.90;99.90;;;;;;5101086;28;19977;-57
2022/04/24 00:23:00;;;;;;;;;;;13.20;99.90;;;;;;5101251;28;20345;-58
2022/04/24 00:25:28;;;;;;;;;;;13.20;99.90;;;;;;5094488;28;19928;-57
2022/04/24 00:27:54;;;;;;;;;;;13.10;99.90;;;;;;5096075;28;19924;-57
2022/04/24 00:30:21;;;;;;;;;;;13.10;99.90;;;;;;5104251;28;20067;-57
2022/04/24 00:32:48;;;;;;;;;;;13.10;99.90;;;;;;5110131;28;19927;-57
2022/04/24 00:35:15;;;;;;;;;;;13.20;99.90;;;;;;5087183;27;19924;-57
2022/04/24 00:37:41;;;;;;;;;;;13.30;99.90;;;;;;5085661;28;19932;-57
2022/04/24 00:40:09;;;;;;;;;;;13.50;99.90;;;;;;5080033;28;19978;-57
2022/04/24 00:42:37;;;;;;;;;;;13.60;99.90;;;;;;5090286;28;20363;-57
2022/04/24 00:45:04;;;;;;;;;;;13.70;99.90;;;;;;5097349;28;19924;-57
2022/04/24 00:47:30;;;;;;;;;;;13.70;99.90;;;;;;5082563;28;19924;-57
2022/04/24 00:49:57;;;;;;;;;;;13.70;99.90;;;;;;5080374;28;19924;-56
2022/04/24 00:52:24;;;;;;;;;;;13.80;99.90;;;;;;5094626;28;20003;-57
2022/04/24 00:54:52;;;;;;;;;;;13.90;99.90;;;;;;5102548;28;20338;-57
2022/04/24 00:57:19;;;;;;;;;;;13.80;99.90;;;;;;5094440;28;19924;-57
2022/04/24 00:59:47;;;;;;;;;;;13.80;99.90;;;;;;5078837;28;19924;-57
2022/04/24 01:02:13;;;;;;;;;;;14.00;99.90;;;;;;5082739;28;19928;-57
2022/04/24 01:04:40;;;;;;;;;;;14.10;99.90;;;;;;5093074;28;20381;-57
2022/04/24 01:07:07;;;;;;;;;;;14.20;99.90;;;;;;5105805;28;20382;-57
2022/04/24 01:09:34;;;;;;;;;;;14.00;99.90;;;;;;5086336;28;19932;-57
2022/04/24 01:12:01;;;;;;;;;;;13.80;99.90;;;;;;5082938;28;19924;-57
2022/04/24 01:14:30;;;;;;;;;;;13.60;99.90;;;;;;5082321;28;19924;-57
2022/04/24 01:16:58;;;;;;;;;;;13.50;99.90;;;;;;5104060;28;20004;-57
2022/04/24 01:19:25;;;;;;;;;;;13.50;99.90;;;;;;5100957;28;20304;-57
2022/04/24 01:21:54;;;;;;;;;;;13.40;99.90;;;;;;5109222;28;20189;-57
2022/04/24 01:24:22;;;;;;;;;;;13.40;99.90;;;;;;5103301;28;19924;-58
2022/04/24 01:26:49;;;;;;;;;;;13.30;99.90;;;;;;5090161;28;20003;-57
2022/04/24 01:29:16;;;;;;;;;;;13.30;99.90;;;;;;5077621;28;19925;-57
2022/04/24 01:31:44;;;;;;;;;;;13.40;99.90;;;;;;5078991;28;19935;-57
2022/04/24 01:34:11;;;;;;;;;;;13.30;99.90;;;;;;5091414;28;19966;-57
2022/04/24 01:36:40;;;;;;;;;;;13.30;99.90;;;;;;5077027;28;20443;-57
2022/04/24 01:39:08;;;;;;;;;;;13.30;99.90;;;;;;5090644;28;19932;-58
2022/04/24 01:41:38;;;;;;;;;;;13.20;99.90;;;;;;5086060;28;19939;-57
2022/04/24 01:44:05;;;;;;;;;;;13.30;99.90;;;;;;5107444;28;19978;-58
2022/04/24 01:46:32;;;;;;;;;;;13.20;99.90;;;;;;5088383;28;19932;-57
2022/04/24 01:48:59;;;;;;;;;;;13.20;99.90;;;;;;5094754;28;19931;-57
2022/04/24 01:51:25;;;;;;;;;;;13.10;99.90;;;;;;5096205;28;20390;-58
2022/04/24 01:53:52;;;;;;;;;;;13.20;99.90;;;;;;5098188;28;19978;-57
2022/04/24 01:56:21;;;;;;;;;;;13.40;99.90;;;;;;5071225;28;19928;-58
2022/04/24 01:58:47;;;;;;;;;;;13.50;99.90;;;;;;5070686;28;19936;-57
2022/04/24 02:01:14;;;;;;;;;;;13.60;99.90;;;;;;5079438;28;19977;-57
2022/04/24 02:03:41;;;;;;;;;;;13.60;99.90;;;;;;5089422;28;20344;-57
2022/04/24 02:06:07;;;;;;;;;;;13.40;99.90;;;;;;5101633;28;19924;-58
2022/04/24 02:08:36;;;;;;;;;;;13.50;99.90;;;;;;5101708;28;19977;-57
2022/04/24 02:11:03;;;;;;;;;;;13.40;99.90;;;;;;5063080;28;1083779;-57
2022/04/24 02:13:31;;;;;;;;;;;13.20;99.90;;;;;;5110889;28;19984;-57
2022/04/24 02:15:58;;;;;;;;;;;13.10;99.90;;;;;;5091945;28;19928;-57
2022/04/24 02:18:24;;;;;;;;;;;13.10;99.90;;;;;;5103096;28;19987;-57
2022/04/24 02:20:51;;;;;;;;;;;13.00;99.90;;;;;;5094297;28;19928;-58
2022/04/24 02:23:18;;;;;;;;;;;12.90;99.90;;;;;;5091024;28;19924;-57
2022/04/24 02:25:45;;;;;;;;;;;12.80;99.90;;;;;;5074777;28;19924;-59
2022/04/24 02:28:11;;;;;;;;;;;12.60;99.90;;;;;;5101472;28;20428;-57
2022/04/24 02:30:39;;;;;;;;;;;12.60;99.90;;;;;;5105400;28;19924;-57
2022/04/24 02:33:06;;;;;;;;;;;12.40;99.90;;;;;;5091517;28;19982;-57
2022/04/24 02:35:33;;;;;;;;;;;12.10;99.90;;;;;;5107040;28;19931;-57
2022/04/24 02:38:00;;;;;;;;;;;12.20;99.90;;;;;;5102546;28;20000;-57
2022/04/24 02:40:27;;;;;;;;;;;12.20;99.90;;;;;;5098988;28;19924;-57
2022/04/24 02:45:58;;;;;;;;;;;12.10;99.90;;;;;;5093869;28;20393;-57
2022/04/24 02:48:27;;;;;;;;;;;12.00;99.90;;;;;;5102461;28;19923;-58
2022/04/24 02:50:54;;;;;;;;;;;12.00;99.90;;;;;;5103573;28;19928;-57
2022/04/24 02:53:21;;;;;;;;;;;12.10;99.90;;;;;;5100380;28;19981;-57
2022/04/24 02:55:47;;;;;;;;;;;12.00;99.90;;;;;;5097488;28;20371;-58
2022/04/24 03:01:18;;;;;;;;;;;11.70;99.90;;;;;;5089479;28;19923;-57
2022/04/24 03:03:45;;;;;;;;;;;11.60;99.90;;;;;;5071406;28;19930;-57
2022/04/24 03:06:12;;;;;;;;;;;11.50;99.90;;;;;;5074905;28;19924;-56
2022/04/24 03:08:40;;;;;;;;;;;11.40;99.90;;;;;;5083048;28;19924;-57
2022/04/24 03:11:06;;;;;;;;;;;11.40;99.90;;;;;;5091191;28;19997;-57
2022/04/24 03:16:37;;;;;;;;;;;11.50;99.90;;;;;;5096953;28;20049;-56
2022/04/24 03:19:04;;;;;;;;;;;11.30;99.90;;;;;;5104203;28;19989;-56
2022/04/24 03:21:31;;;;;;;;;;;11.40;99.90;;;;;;5085534;28;19932;-57
2022/04/24 03:23:58;;;;;;;;;;;11.40;99.90;;;;;;5095873;28;19984;-57
2022/04/24 03:26:24;;;;;;;;;;;11.50;99.90;;;;;;5109291;28;19949;-57
2022/04/24 03:28:51;;;;;;;;;;;11.40;99.90;;;;;;5113968;28;19924;-58
2022/04/24 03:31:18;;;;;;;;;;;11.20;99.90;;;;;;5100159;28;19924;-58
2022/04/24 03:33:46;;;;;;;;;;;11.10;99.90;;;;;;5089771;28;19924;-58
2022/04/24 03:36:13;;;;;;;;;;;11.20;99.90;;;;;;5099567;28;20426;-58
2022/04/24 03:38:40;;;;;;;;;;;11.20;99.90;;;;;;5107374;28;20016;-58
2022/04/24 03:41:08;;;;;;;;;;;11.20;99.90;;;;;;5092497;28;19936;-58
2022/04/24 03:43:34;;;;;;;;;;;11.10;99.90;;;;;;5092434;28;20378;-58
2022/04/24 03:46:01;;;;;;;;;;;11.00;99.90;;;;;;5098644;28;19928;-57
2022/04/24 03:48:28;;;;;;;;;;;11.10;99.90;;;;;;5110122;28;19981;-57
2022/04/24 03:50:56;;;;;;;;;;;11.20;99.90;;;;;;5099265;28;19989;-57
2022/04/24 03:53:23;;;;;;;;;;;11.20;99.90;;;;;;5079710;28;19924;-58
2022/04/24 03:55:50;;;;;;;;;;;11.10;99.90;;;;;;5088037;28;20330;-58
2022/04/24 03:58:17;;;;;;;;;;;11.00;99.90;;;;;;5085838;28;19924;-58
2022/04/24 04:00:43;;;;;;;;;;;10.90;99.90;;;;;;5094303;28;20041;-58
2022/04/24 04:03:10;;;;;;;;;;;11.00;99.90;;;;;;5094346;28;19928;-58
2022/04/24 04:05:37;;;;;;;;;;;10.80;99.90;;;;;;5093947;28;20020;-58
2022/04/24 04:08:06;;;;;;;;;;;10.70;99.90;;;;;;5084688;28;19932;-58
2022/04/24 04:10:33;;;;;;;;;;;10.90;99.90;;;;;;5096659;28;20339;-58
2022/04/24 04:12:59;;;;;;;;;;;11.00;99.90;;;;;;5093104;28;20303;-58
2022/04/24 04:15:26;;;;;;;;;;;10.70;99.90;;;;;;5085596;28;19978;-58
2022/04/24 04:17:53;;;;;;;;;;;10.60;99.90;;;;;;5078887;28;19928;-58
2022/04/24 04:20:20;;;;;;;;;;;10.80;99.90;;;;;;5080724;28;20214;-58
2022/04/24 04:22:51;;;;;;;;;;;10.90;99.90;;;;;;5083407;28;19924;-58
2022/04/24 04:25:19;;;;;;;;;;;10.90;99.90;;;;;;5092334;28;19924;-58
2022/04/24 04:27:46;;;;;;;;;;;10.70;99.90;;;;;;5072570;28;20463;-58
2022/04/24 04:30:13;;;;;;;;;;;10.50;99.90;;;;;;5077730;28;20007;-58
2022/04/24 04:32:40;;;;;;;;;;;10.20;99.90;;;;;;5078471;28;19925;-58
2022/04/24 04:35:09;;;;;;;;;;;10.10;99.90;;;;;;5081546;28;19923;-58
2022/04/24 04:37:36;;;;;;;;;;;10.10;99.90;;;;;;5082801;28;19931;-58
2022/04/24 04:40:03;;;;;;;;;;;10.10;99.90;;;;;;5080626;28;20451;-58
2022/04/24 04:42:31;;;;;;;;;;;10.50;99.90;;;;;;5090666;28;19942;-58
2022/04/24 04:45:00;;;;;;;;;;;10.60;99.90;;;;;;5084373;28;20382;-58
2022/04/24 04:47:27;;;;;;;;;;;10.40;99.90;;;;;;5079926;28;19924;-58
2022/04/24 04:49:54;;;;;;;;;;;10.70;99.90;;;;;;5075378;28;20283;-58
2022/04/24 04:52:21;;;;;;;;;;;10.70;99.90;;;;;;5083921;28;19924;-58
2022/04/24 04:54:47;;;;;;;;;;;10.80;99.90;;;;;;5092980;28;19924;-58
2022/04/24 04:57:14;;;;;;;;;;;10.70;99.90;;;;;;5092962;28;19924;-58
2022/04/24 04:59:42;;;;;;;;;;;10.50;99.90;;;;;;5086945;28;19924;-58
2022/04/24 05:02:09;;;;;;;;;;;10.30;99.90;;;;;;5076946;28;20485;-58
2022/04/24 05:04:36;;;;;;;;;;;10.30;99.90;;;;;;5080694;28;19947;-58
2022/04/24 05:07:03;;;;;;;;;;;10.60;99.90;;;;;;5083748;28;19932;-58
2022/04/24 05:09:30;;;;;;;;;;;10.60;99.90;;;;;;5089816;28;19946;-58
2022/04/24 05:11:56;;;;;;;;;;;10.70;99.90;;;;;;5101373;22;19959;-49
2022/04/24 05:14:23;;;;;;;;;;;10.70;99.90;;;;;;5046104;28;19929;-49
2022/04/24 05:16:51;;;;;;;;;;;10.70;99.90;;;;;;5044995;28;19925;-50
2022/04/24 05:19:18;;;;;;;;;;;10.70;99.90;;;;;;5051580;28;19955;-50
2022/04/24 05:21:45;;;;;;;;;;;10.70;99.90;;;;;;5051493;28;19994;-47
2022/04/24 05:24:12;;;;;;;;;;;10.60;99.90;;;;;;5037897;28;19932;-47
2022/04/24 05:26:38;;;;;;;;;;;10.80;99.90;;;;;;5043465;28;19925;-47
2022/04/24 05:29:05;;;;;;;;;;;10.70;99.90;;;;;;5034759;28;20449;-48
2022/04/24 05:31:33;;;;;;;;;;;10.90;99.90;;;;;;5036481;28;19978;-47
2022/04/24 05:34:01;;;;;;;;;;;11.00;99.90;;;;;;5036647;28;19925;-47
2022/04/24 05:36:28;;;;;;;;;;;11.10;99.90;;;;;;5028056;28;20402;-47
2022/04/24 05:38:54;;;;;;;;;;;11.20;99.90;;;;;;5030774;28;19925;-47
2022/04/24 05:41:21;;;;;;;;;;;11.20;99.90;;;;;;5028874;28;19971;-48
2022/04/24 05:43:48;;;;;;;;;;;11.20;99.90;;;;;;5043122;28;19955;-48
2022/04/24 05:46:15;;;;;;;;;;;11.40;99.90;;;;;;5032771;28;20437;-47
2022/04/24 05:48:42;;;;;;;;;;;11.40;99.90;;;;;;5032480;28;19949;-48
2022/04/24 05:51:10;;;;;;;;;;;11.40;99.90;;;;;;5029449;28;19925;-47
2022/04/24 05:53:37;;;;;;;;;;;11.50;99.90;;;;;;5031826;28;19933;-46
2022/04/24 05:56:04;;;;;;;;;;;11.50;99.90;;;;;;5033519;28;19933;-48
2022/04/24 05:58:31;;;;;;;;;;;11.50;99.90;;;;;;5035216;28;20338;-47
2022/04/24 06:00:58;;;;;;;;;;;11.80;99.90;;;;;;5035181;28;19929;-47
2022/04/24 06:03:24;;;;;;;;;;;12.00;99.90;;;;;;5032176;28;20327;-48
2022/04/24 06:05:51;;;;;;;;;;;12.20;99.90;;;;;;5032375;28;19932;-49
2022/04/24 06:08:19;;;;;;;;;;;12.60;99.90;;;;;;5032754;28;19971;-48
2022/04/24 06:10:46;;;;;;;;;;;13.10;99.90;;;;;;5029991;28;19925;-48
2022/04/24 06:13:13;;;;;;;;;;;14.00;99.90;;;;;;5032618;28;19925;-48
2022/04/24 06:15:40;;;;;;;;;;;14.50;99.90;;;;;;5030821;28;20643;-48
2022/04/24 06:18:07;;;;;;;;;;;15.00;99.90;;;;;;5032167;28;19925;-48
2022/04/24 06:20:33;;;;;;;;;;;15.70;99.90;;;;;;5031938;28;19983;-49
2022/04/24 06:23:01;;;;;;;;;;;16.20;99.90;;;;;;5031824;28;20449;-48
2022/04/24 06:25:31;;;;;;;;;;;17.10;99.90;;;;;;5030197;28;19994;-48
2022/04/24 06:27:59;;;;;;;;;;;17.90;99.90;;;;;;5028899;28;19925;-47
2022/04/24 06:30:27;;;;;;;;;;;19.10;99.90;;;;;;5028997;28;19925;-47
2022/04/24 06:32:55;;;;;;;;;;;19.90;99.90;;;;;;5019769;28;19996;-47
2022/04/24 06:35:23;;;;;;;;;;;20.40;99.90;;;;;;5030490;28;19980;-47
2022/04/24 06:37:53;;;;;;;;;;;21.60;98.80;;;;;;5030436;28;19952;-48
2022/04/24 06:40:23;;;;;;;;;;;23.40;96.20;;;;;;5027979;28;19925;-48
2022/04/24 06:42:52;;;;;;;;;;;24.40;93.60;;;;;;5028546;28;20457;-48
2022/04/24 06:45:21;;;;;;;;;;;26.00;90.00;;;;;;5023899;28;19925;-48
2022/04/24 06:47:48;;;;;;;;;;;26.90;82.30;;;;;;5029273;28;20392;-48
2022/04/24 06:50:15;;;;;;;;;;;26.80;80.50;;;;;;5030830;28;20399;-49
2022/04/24 06:52:42;;;;;;;;;;;28.10;79.00;;;;;;5034082;28;20423;-49
2022/04/24 06:55:09;;;;;;;;;;;28.80;72.80;;;;;;5034802;28;19976;-48
2022/04/24 06:57:36;;;;;;;;;;;29.00;69.50;;;;;;5035467;28;19979;-49
2022/04/24 07:00:05;;;;;;;;;;;29.30;68.50;;;;;;5031723;28;20288;-49
2022/04/24 07:02:32;;;;;;;;;;;30.40;65.30;;;;;;5032038;28;20448;-49
2022/04/24 07:04:59;;;;;;;;;;;29.30;62.80;;;;;;5034996;28;19994;-49
2022/04/24 07:07:26;;;;;;;;;;;26.60;68.10;;;;;;5035727;28;19932;-48
2022/04/24 07:09:53;;;;;;;;;;;24.90;71.20;;;;;;5033132;28;19952;-49
2022/04/24 07:12:20;;;;;;;;;;;23.70;72.20;;;;;;5032622;28;19925;-49
2022/04/24 07:14:47;;;;;;;;;;;22.70;76.20;;;;;;5034306;28;20448;-51
2022/04/24 07:17:17;;;;;;;;;;;22.20;76.90;;;;;;5027789;28;19960;-49
2022/04/24 07:19:44;;;;;;;;;;;21.70;79.20;;;;;;5028467;28;19929;-49
2022/04/24 07:22:11;;;;;;;;;;;21.20;80.40;;;;;;5031164;28;19925;-49
2022/04/24 07:24:38;;;;;;;;;;;20.20;83.60;;;;;;5034958;28;19937;-48
2022/04/24 07:27:05;;;;;;;;;;;18.60;85.10;;;;;;5030884;28;19937;-48
2022/04/24 07:29:31;;;;;;;;;;;17.00;88.70;;;;;;5032074;28;19975;-48
2022/04/24 07:31:58;;;;;;;;;;;16.50;91.50;;;;;;5033468;28;19929;-47
2022/04/24 07:34:26;;;;;;;;;;;16.70;91.00;;;;;;5034919;28;19929;-47
2022/04/24 07:36:53;;;;;;;;;;;16.90;90.60;;;;;;5031806;28;20391;-47
2022/04/24 07:39:20;;;;;;;;;;;16.30;91.70;;;;;;5031319;28;19933;-48
2022/04/24 07:41:47;;;;;;;;;;;16.10;92.60;;;;;;5026958;28;20293;-48
2022/04/24 07:44:13;;;;;;;;;;;15.60;93.60;;;;;;5030175;28;19980;-46
2022/04/24 07:46:40;;;;;;;;;;;15.30;94.70;;;;;;5032148;28;19979;-49
2022/04/24 07:49:07;;;;;;;;;;;15.00;94.80;;;;;;5030848;28;19933;-47
2022/04/24 07:51:35;;;;;;;;;;;14.90;96.10;;;;;;5034079;28;20375;-48
2022/04/24 07:54:02;;;;;;;;;;;14.90;96.00;;;;;;5026738;28;19971;-48
2022/04/24 07:56:29;;;;;;;;;;;14.90;97.50;;;;;;5032367;28;19975;-47
2022/04/24 07:58:55;;;;;;;;;;;14.60;98.40;;;;;;5029431;28;19929;-47
2022/04/24 08:01:22;;;;;;;;;;;14.80;97.40;;;;;;5030872;28;19929;-47
2022/04/24 08:03:49;;;;;;;;;;;14.80;96.90;;;;;;5033836;28;20354;-48
2022/04/24 08:06:16;;;;;;;;;;;14.90;97.40;;;;;;5028148;28;19925;-47
2022/04/24 08:08:44;;;;;;;;;;;15.00;97.30;;;;;;5032830;28;20389;-47
2022/04/24 08:11:11;;;;;;;;;;;15.00;97.60;;;;;;5027957;28;19995;-47
2022/04/24 08:13:38;;;;;;;;;;;15.00;96.80;;;;;;5033783;28;19978;-47
2022/04/24 08:16:05;;;;;;;;;;;14.90;97.20;;;;;;5034106;28;19925;-47
2022/04/24 08:18:32;;;;;;;;;;;14.90;97.60;;;;;;5032964;28;20394;-46
2022/04/24 08:20:59;;;;;;;;;;;14.70;98.50;;;;;;5033350;28;19936;-47
2022/04/24 08:23:26;;;;;;;;;;;14.60;98.10;;;;;;5034026;28;19925;-47
2022/04/24 08:25:54;;;;;;;;;;;14.60;98.00;;;;;;5031125;28;19929;-48
2022/04/24 08:28:21;;;;;;;;;;;14.60;98.60;;;;;;5031403;28;19932;-48
2022/04/24 08:30:49;;;;;;;;;;;14.40;98.70;;;;;;5033644;28;19925;-48
2022/04/24 08:33:17;;;;;;;;;;;14.40;99.30;;;;;;5033204;28;19932;-47
2022/04/24 08:35:45;;;;;;;;;;;14.40;99.90;;;;;;5030787;28;19971;-48
2022/04/24 08:38:12;;;;;;;;;;;14.70;99.10;;;;;;5029055;28;20047;-49
2022/04/24 08:40:38;;;;;;;;;;;14.90;99.00;;;;;;5031686;28;20048;-48
2022/04/24 08:43:07;;;;;;;;;;;15.00;98.80;;;;;;5029269;28;19929;-48
2022/04/24 08:45:34;;;;;;;;;;;15.20;98.90;;;;;;5026358;28;19925;-48
2022/04/24 08:48:02;;;;;;;;;;;15.00;99.00;;;;;;5033144;28;20004;-47
2022/04/24 08:50:29;;;;;;;;;;;15.00;99.90;;;;;;5032493;28;19926;-48
2022/04/24 08:52:57;;;;;;;;;;;14.70;99.90;;;;;;5029097;28;20586;-48
2022/04/24 08:55:25;;;;;;;;;;;14.90;99.50;;;;;;5032083;28;20044;-48
2022/04/24 08:57:52;;;;;;;;;;;14.80;99.80;;;;;;5030327;28;19971;-48
2022/04/24 09:00:21;;;;;;;;;;;14.90;99.80;;;;;;5027778;28;19929;-47
2022/04/24 09:02:47;;;;;;;;;;;14.80;99.50;;;;;;5031395;28;19931;-49
2022/04/24 09:05:15;;;;;;;;;;;14.40;99.90;;;;;;5027695;28;19932;-48
2022/04/24 09:07:43;;;;;;;;;;;14.40;99.80;;;;;;5029925;28;19929;-48
2022/04/24 09:10:11;;;;;;;;;;;14.50;99.60;;;;;;5029824;28;19931;-49
2022/04/24 09:12:39;;;;;;;;;;;14.60;99.90;;;;;;5025067;28;19925;-48
2022/04/24 09:15:06;;;;;;;;;;;14.50;99.40;;;;;;5028734;28;19925;-49
2022/04/24 09:17:35;;;;;;;;;;;14.30;99.90;;;;;;5027610;28;19929;-47
2022/04/24 09:20:03;;;;;;;;;;;14.20;99.90;;;;;;5028648;28;20444;-48
2022/04/24 09:22:37;;;;;;;;;;;14.40;99.90;;;;;;5029330;28;19936;-49
2022/04/24 09:25:04;;;;;;;;;;;14.50;99.90;;;;;;5029522;28;19933;-48
2022/04/24 09:27:33;;;;;;;;;;;14.70;99.90;;;;;;5030187;28;19940;-48
2022/04/24 09:30:01;;;;;;;;;;;14.80;99.90;;;;;;5030237;28;19935;-48
2022/04/24 09:32:28;;;;;;;;;;;14.50;99.90;;;;;;5030175;28;20392;-47
2022/04/24 09:34:57;;;;;;;;;;;14.20;99.90;;;;;;5029632;28;19925;-48
2022/04/24 09:37:24;;;;;;;;;;;14.20;99.90;;;;;;5020257;28;20015;-47
2022/04/24 09:39:51;;;;;;;;;;;14.20;99.90;;;;;;5030213;28;20342;-47
2022/04/24 09:42:18;;;;;;;;;;;14.10;99.90;;;;;;5035406;28;19979;-48
2022/04/24 09:44:46;;;;;;;;;;;14.40;99.90;;;;;;5027721;28;20391;-47
2022/04/24 09:47:13;;;;;;;;;;;14.30;99.90;;;;;;5028545;28;19933;-48
2022/04/24 09:49:41;;;;;;;;;;;14.70;99.90;;;;;;5031596;28;19982;-48
2022/04/24 09:52:13;;;;;;;;;;;14.80;99.90;;;;;;5026529;28;19929;-48
2022/04/24 09:54:41;;;;;;;;;;;15.10;99.90;;;;;;5028212;28;20146;-48
2022/04/24 09:57:08;;;;;;;;;;;15.20;99.90;;;;;;5026772;28;20334;-49
2022/04/24 09:59:35;;;;;;;;;;;15.30;99.90;;;;;;5029648;28;19925;-49
2022/04/24 10:02:03;;;;;;;;;;;15.60;99.90;;;;;;5030008;28;20391;-48
2022/04/24 10:04:30;;;;;;;;;;;16.20;99.90;;;;;;5029575;28;19929;-48
2022/04/24 10:06:58;;;;;;;;;;;16.60;99.90;;;;;;5028682;28;20353;-48
2022/04/24 10:09:26;;;;;;;;;;;17.00;98.00;;;;;;5027954;28;19929;-48
2022/04/24 10:11:53;;;;;;;;;;;17.60;97.40;;;;;;5030884;28;19925;-49
2022/04/24 10:14:20;;;;;;;;;;;17.50;96.50;;;;;;5029317;28;20543;-47
2022/04/24 10:16:58;;;;;;;;;;;17.60;96.90;;;;;;5022188;28;19925;-48
2022/04/24 10:19:30;;;;;;;;;;;17.40;98.00;;;;;;5028177;28;19955;-48
2022/04/24 10:22:03;;;;;;;;;;;18.30;96.20;;;;;;5028558;28;19991;-47
2022/04/24 10:24:40;;;;;;;;;;;18.90;94.70;;;;;;5029636;28;19929;-49
2022/04/24 10:27:07;;;;;;;;;;;20.10;94.20;;;;;;5028762;28;19925;-49
2022/04/24 10:29:34;;;;;;;;;;;21.40;92.60;;;;;;5029559;28;19935;-49
2022/04/24 10:32:01;;;;;;;;;;;22.10;90.20;;;;;;5024614;28;19932;-48
2022/04/24 10:34:38;;;;;;;;;;;22.10;91.00;;;;;;5030014;28;19925;-49
2022/04/24 10:37:05;;;;;;;;;;;22.20;90.10;;;;;;5030569;28;19925;-49
2022/04/24 10:39:33;;;;;;;;;;;21.90;90.30;;;;;;5027809;28;20342;-48
2022/04/24 10:42:11;;;;;;;;;;;21.60;90.60;;;;;;5028324;28;19925;-49
2022/04/24 10:44:49;;;;;;;;;;;21.50;88.10;;;;;;5028499;28;19925;-48
2022/04/24 10:47:16;;;;;;;;;;;21.30;91.60;;;;;;5030183;28;20055;-48
2022/04/24 10:49:42;;;;;;;;;;;20.90;89.80;;;;;;5030241;28;19929;-48
2022/04/24 10:52:10;;;;;;;;;;;21.00;91.70;;;;;;5027146;28;19925;-48
2022/04/24 10:54:38;;;;;;;;;;;20.20;90.30;;;;;;5028484;28;20409;-47
2022/04/24 10:57:17;;;;;;;;;;;19.70;91.10;;;;;;5030396;28;19924;-47
2022/04/24 10:59:45;;;;;;;;;;;19.20;91.60;;;;;;5029855;28;20028;-47
2022/04/24 11:02:12;;;;;;;;;;;19.70;90.70;;;;;;5027051;28;20016;-48
2022/04/24 11:04:40;;;;;;;;;;;19.90;91.90;;;;;;5031501;28;20445;-48
2022/04/24 11:07:07;;;;;;;;;;;19.80;93.20;;;;;;5031491;28;20453;-48
2022/04/24 11:09:35;;;;;;;;;;;19.90;92.00;;;;;;5031431;28;19925;-48
2022/04/24 11:12:04;;;;;;;;;;;19.70;90.60;;;;;;5030878;28;19948;-48
2022/04/24 11:14:33;;;;;;;;;;;18.80;93.10;;;;;;5031784;28;19982;-47
2022/04/24 11:17:01;;;;;;;;;;;18.40;93.60;;;;;;5032243;28;19925;-47
2022/04/24 11:19:28;;;;;;;;;;;17.90;92.50;;;;;;5031444;28;19929;-48
2022/04/24 11:21:56;;;;;;;;;;;17.70;93.30;;;;;;5079042;22;19924;-58
2022/04/24 11:24:24;;;;;;;;;;;17.90;93.90;;;;;;5064836;28;19975;-58
2022/04/24 11:26:52;;;;;;;;;;;18.30;92.40;;;;;;5054193;28;19924;-58
2022/04/24 11:29:19;;;;;;;;;;;18.40;92.90;;;;;;5061196;28;19935;-58
2022/04/24 11:31:52;;;;;;;;;;;18.20;92.70;;;;;;5064722;28;20036;-58
2022/04/24 11:34:20;;;;;;;;;;;18.70;92.70;;;;;;5066431;28;20033;-59
2022/04/24 11:36:47;;;;;;;;;;;18.70;93.50;;;;;;5065952;28;19979;-59
2022/04/24 11:39:13;;;;;;;;;;;18.50;94.10;;;;;;5063185;28;19989;-59
2022/04/24 11:41:41;;;;;;;;;;;18.70;93.10;;;;;;5063380;28;20062;-58
2022/04/24 11:52:20;;;;;;;;;;;18.00;92.50;;;;;;5070920;28;19973;-58
2022/04/24 11:54:47;;;;;;;;;;;17.90;93.20;;;;;;5060806;28;19925;-58
2022/04/24 11:57:14;;;;;;;;;;;17.40;94.00;;;;;;5065138;28;19925;-59
2022/04/24 11:59:41;;;;;;;;;;;17.50;94.00;;;;;;5072557;28;20282;-59
2022/04/24 12:02:14;;;;;;;;;;;17.60;94.00;;;;;;5070906;28;19936;-59
2022/04/24 12:04:40;;;;;;;;;;;18.20;93.10;;;;;;5070662;28;20355;-58
2022/04/24 12:07:08;;;;;;;;;;;18.40;92.80;;;;;;5073383;28;19990;-59
2022/04/24 12:09:35;;;;;;;;;;;18.80;92.00;;;;;;5071999;28;20401;-58
2022/04/24 12:12:06;;;;;;;;;;;18.30;92.70;;;;;;5069193;28;19970;-58
2022/04/24 12:14:33;;;;;;;;;;;18.40;92.30;;;;;;5073196;28;20023;-58
2022/04/24 12:17:02;;;;;;;;;;;18.30;92.30;;;;;;5071925;28;19924;-58
2022/04/24 12:19:31;;;;;;;;;;;18.10;93.40;;;;;;5065665;28;19981;-58
2022/04/24 12:22:04;;;;;;;;;;;17.70;94.70;;;;;;5068325;28;19940;-58
2022/04/24 12:24:38;;;;;;;;;;;17.30;94.80;;;;;;5073265;28;19924;-57
2022/04/24 12:27:05;;;;;;;;;;;17.50;95.20;;;;;;5064246;28;19929;-58
2022/04/24 12:29:39;;;;;;;;;;;17.90;94.30;;;;;;5060745;28;19977;-58
2022/04/24 12:32:06;;;;;;;;;;;18.40;93.50;;;;;;5064114;28;19928;-58
2022/04/24 12:34:38;;;;;;;;;;;18.50;94.30;;;;;;5068606;28;19931;-59
2022/04/24 12:37:05;;;;;;;;;;;18.30;93.20;;;;;;5066567;28;19936;-59
2022/04/24 12:39:32;;;;;;;;;;;18.10;93.50;;;;;;5068630;28;20031;-58
2022/04/24 12:42:00;;;;;;;;;;;18.30;93.70;;;;;;5065668;28;20059;-59
2022/04/24 12:44:26;;;;;;;;;;;18.40;94.00;;;;;;5068674;28;19978;-58
2022/04/24 12:46:53;;;;;;;;;;;18.10;93.60;;;;;;5064206;28;19946;-59
2022/04/24 12:49:29;;;;;;;;;;;17.90;93.60;;;;;;5067862;28;19925;-58
2022/04/24 12:51:58;;;;;;;;;;;17.60;94.20;;;;;;5063206;28;20402;-58
2022/04/24 12:54:24;;;;;;;;;;;17.80;94.60;;;;;;5066778;28;19931;-59
2022/04/24 12:56:51;;;;;;;;;;;17.70;94.70;;;;;;5065507;28;19955;-59
2022/04/24 12:59:19;;;;;;;;;;;17.20;94.40;;;;;;5068018;28;20360;-58
2022/04/24 13:01:45;;;;;;;;;;;16.60;95.40;;;;;;5070232;28;20325;-58
2022/04/24 13:04:14;;;;;;;;;;;16.30;95.00;;;;;;5065792;28;19970;-58
2022/04/24 13:06:41;;;;;;;;;;;16.00;96.30;;;;;;5068819;28;19940;-58
2022/04/24 13:09:11;;;;;;;;;;;15.50;96.80;;;;;;5071042;28;20416;-58
2022/04/24 13:11:38;;;;;;;;;;;15.30;98.40;;;;;;5069885;28;20534;-58
2022/04/24 13:14:04;;;;;;;;;;;15.20;97.70;;;;;;5072062;28;19970;-58
2022/04/24 13:19:16;;;;;;;;;;;15.10;99.90;;;;;;5070945;28;20037;-58
2022/04/24 13:21:43;;;;;;;;;;;14.80;99.90;;;;;;5069646;28;20018;-58
2022/04/24 13:24:11;;;;;;;;;;;14.60;99.90;;;;;;5070253;28;19928;-58
2022/04/24 13:26:40;;;;;;;;;;;14.60;99.90;;;;;;5070954;28;20386;-58
2022/04/24 13:29:07;;;;;;;;;;;14.50;99.90;;;;;;5070655;28;19925;-58
2022/04/24 13:31:34;;;;;;;;;;;14.50;99.90;;;;;;5070636;28;19931;-58
2022/04/24 13:34:01;;;;;;;;;;;14.80;99.90;;;;;;5070878;28;19928;-58
2022/04/24 13:36:31;;;;;;;;;;;14.80;99.90;;;;;;5063549;28;20279;-58
2022/04/24 13:38:57;;;;;;;;;;;14.90;99.90;;;;;;5061684;28;19987;-58
2022/04/24 13:41:26;;;;;;;;;;;15.00;99.90;;;;;;5071287;28;19921;-58
2022/04/24 13:43:53;;;;;;;;;;;14.90;99.90;;;;;;5066924;28;20011;-58
2022/04/24 13:46:19;;;;;;;;;;;15.10;99.90;;;;;;5069851;28;19987;-58
2022/04/24 13:48:46;;;;;;;;;;;15.40;99.90;;;;;;5068723;28;19932;-58
2022/04/24 13:51:15;;;;;;;;;;;15.20;99.90;;;;;;5065799;28;20385;-58
2022/04/24 13:53:43;;;;;;;;;;;15.50;99.90;;;;;;5069361;28;19925;-58
2022/04/24 13:56:12;;;;;;;;;;;15.80;99.90;;;;;;5066307;28;19933;-58
2022/04/24 13:58:40;;;;;;;;;;;15.80;99.90;;;;;;5069515;28;19932;-58
2022/04/24 14:01:07;;;;;;;;;;;15.80;99.90;;;;;;5068316;28;19925;-58
2022/04/24 14:03:34;;;;;;;;;;;15.60;99.90;;;;;;5069074;28;19924;-57
2022/04/24 14:06:01;;;;;;;;;;;15.00;99.90;;;;;;5064556;28;19924;-58
2022/04/24 14:08:29;;;;;;;;;;;14.80;99.90;;;;;;5067252;28;19925;-58
2022/04/24 14:10:59;;;;;;;;;;;14.60;99.90;;;;;;5067258;28;19928;-58
2022/04/24 14:13:26;;;;;;;;;;;14.70;99.90;;;;;;5070166;28;19948;-58
2022/04/24 14:15:54;;;;;;;;;;;14.50;99.90;;;;;;5064267;28;20310;-58
2022/04/24 14:18:21;;;;;;;;;;;14.20;99.90;;;;;;5064652;28;19970;-58
2022/04/24 14:20:48;;;;;;;;;;;14.30;99.90;;;;;;5066687;28;19993;-58
2022/04/24 14:23:15;;;;;;;;;;;14.20;99.90;;;;;;5063039;28;19925;-58
2022/04/24 14:25:42;;;;;;;;;;;14.30;99.90;;;;;;5068141;28;20287;-58
2022/04/24 14:28:09;;;;;;;;;;;14.10;99.90;;;;;;5069692;28;19978;-58
2022/04/24 14:30:35;;;;;;;;;;;13.90;99.90;;;;;;5062882;28;19929;-58
2022/04/24 14:33:03;;;;;;;;;;;14.00;99.90;;;;;;5059496;28;19924;-58
2022/04/24 14:35:31;;;;;;;;;;;13.80;99.90;;;;;;5064566;28;20005;-58
2022/04/24 14:37:58;;;;;;;;;;;13.60;99.90;;;;;;5063017;28;19932;-58